sensor_id;sensor_type;location;lat;lon;timestamp;pressure;altitude;pressure_sealevel;temperature;humidity
41513;BME280;27244;59.940;30.280;2023-02-23T00:02:00;102078.84;;;23.02;23.77
41513;BME280;27244;59.940;30.280;2023-02-23T00:04:32;102078.47;;;23.00;23.67
41513;BME280;27244;59.940;30.280;2023-02-23T00:06:59;102074.44;;;23.01;23.54
41513;BME280;27244;59.940;30.280;2023-02-23T00:09:27;102061.97;;;22.99;23.89
41513;BME280;27244;59.940;30.280;2023-02-23T00:12:00;102057.56;;;22.98;23.93
41513;BME280;27244;59.940;30.280;2023-02-23T00:14:33;102060.78;;;22.96;23.87
41513;BME280;27244;59.940;30.280;2023-02-23T00:17:02;102061.97;;;22.99;23.45
41513;BME280;27244;59.940;30.280;2023-02-23T00:19:29;102060.81;;;22.93;23.59
41513;BME280;27244;59.940;30.280;2023-02-23T00:21:57;102073.63;;;22.97;23.64
41513;BME280;27244;59.940;30.280;2023-02-23T00:24:25;102071.22;;;22.99;23.44
41513;BME280;27244;59.940;30.280;2023-02-23T00:26:53;102066.41;;;22.96;23.47
41513;BME280;27244;59.940;30.280;2023-02-23T00:29:22;102068.81;;;22.98;23.48
41513;BME280;27244;59.940;30.280;2023-02-23T00:31:51;102077.25;;;22.98;23.64
41513;BME280;27244;59.940;30.280;2023-02-23T00:34:19;102081.31;;;22.97;23.70
41513;BME280;27244;59.940;30.280;2023-02-23T00:36:48;102072.44;;;22.98;23.57
41513;BME280;27244;59.940;30.280;2023-02-23T00:39:16;102071.63;;;22.94;23.51
41513;BME280;27244;59.940;30.280;2023-02-23T00:41:46;102062.00;;;22.95;23.77
41513;BME280;27244;59.940;30.280;2023-02-23T00:44:16;102063.19;;;22.98;23.45
41513;BME280;27244;59.940;30.280;2023-02-23T00:46:44;102055.97;;;22.97;23.37
41513;BME280;27244;59.940;30.280;2023-02-23T00:49:13;102057.56;;;22.98;23.43
41513;BME280;27244;59.940;30.280;2023-02-23T00:51:41;102055.16;;;22.96;23.17
41513;BME280;27244;59.940;30.280;2023-02-23T00:54:10;102056.75;;;22.94;23.35
41513;BME280;27244;59.940;30.280;2023-02-23T00:56:38;102052.75;;;22.95;23.33
41513;BME280;27244;59.940;30.280;2023-02-23T00:59:06;102058.38;;;22.95;23.12
41513;BME280;27244;59.940;30.280;2023-02-23T01:01:34;102053.94;;;22.94;23.17
41513;BME280;27244;59.940;30.280;2023-02-23T01:04:02;102052.75;;;22.91;23.25
41513;BME280;27244;59.940;30.280;2023-02-23T01:06:29;102041.91;;;22.90;23.12
41513;BME280;27244;59.940;30.280;2023-02-23T01:08:56;102047.94;;;22.95;23.45
41513;BME280;27244;59.940;30.280;2023-02-23T01:11:26;102057.56;;;22.98;23.32
41513;BME280;27244;59.940;30.280;2023-02-23T01:13:57;102055.97;;;22.97;23.30
41513;BME280;27244;59.940;30.280;2023-02-23T01:16:26;102050.34;;;22.97;23.27
41513;BME280;27244;59.940;30.280;2023-02-23T01:18:57;102048.72;;;22.96;23.18
41513;BME280;27244;59.940;30.280;2023-02-23T01:21:26;102033.47;;;22.86;23.32
41513;BME280;27244;59.940;30.280;2023-02-23T01:23:54;102043.91;;;22.96;23.19
41513;BME280;27244;59.940;30.280;2023-02-23T01:26:23;102033.06;;;22.91;23.20
41513;BME280;27244;59.940;30.280;2023-02-23T01:28:54;102037.47;;;22.96;23.17
41513;BME280;27244;59.940;30.280;2023-02-23T01:31:24;102041.50;;;22.95;23.15
41513;BME280;27244;59.940;30.280;2023-02-23T01:33:51;102038.31;;;22.93;23.06
41513;BME280;27244;59.940;30.280;2023-02-23T01:36:20;102039.47;;;22.95;22.99
41513;BME280;27244;59.940;30.280;2023-02-23T01:38:47;102041.50;;;22.95;22.89
41513;BME280;27244;59.940;30.280;2023-02-23T01:41:15;102033.06;;;22.91;23.10
41513;BME280;27244;59.940;30.280;2023-02-23T01:43:55;102031.03;;;22.95;23.11
41513;BME280;27244;59.940;30.280;2023-02-23T01:46:22;102026.28;;;22.85;23.05
41513;BME280;27244;59.940;30.280;2023-02-23T01:48:50;102033.44;;;22.93;22.93
41513;BME280;27244;59.940;30.280;2023-02-23T01:51:24;102025.41;;;22.95;22.96
41513;BME280;27244;59.940;30.280;2023-02-23T01:53:55;102036.28;;;22.97;23.05
41513;BME280;27244;59.940;30.280;2023-02-23T01:56:27;102037.47;;;22.96;22.85
41513;BME280;27244;59.940;30.280;2023-02-23T01:58:57;102033.06;;;22.95;22.99
41513;BME280;27244;59.940;30.280;2023-02-23T02:01:27;102035.88;;;22.95;23.02
41513;BME280;27244;59.940;30.280;2023-02-23T02:03:57;102035.47;;;22.96;22.92
41513;BME280;27244;59.940;30.280;2023-02-23T02:06:28;102027.84;;;22.97;22.96
41513;BME280;27244;59.940;30.280;2023-02-23T02:08:58;102029.44;;;22.94;22.98
41513;BME280;27244;59.940;30.280;2023-02-23T02:11:26;102032.25;;;22.91;22.89
41513;BME280;27244;59.940;30.280;2023-02-23T02:14:03;102027.81;;;22.93;22.83
41513;BME280;27244;59.940;30.280;2023-02-23T02:23:40;102006.09;;;23.01;23.03
41513;BME280;27244;59.940;30.280;2023-02-23T02:26:19;102013.38;;;22.91;23.03
41513;BME280;27244;59.940;30.280;2023-02-23T02:32:11;102021.78;;;22.95;22.91
41513;BME280;27244;59.940;30.280;2023-02-23T02:35:02;102026.25;;;22.92;22.83
41513;BME280;27244;59.940;30.280;2023-02-23T02:37:45;102021.00;;;22.94;22.68
41513;BME280;27244;59.940;30.280;2023-02-23T02:40:26;102020.59;;;22.92;22.92
41513;BME280;27244;59.940;30.280;2023-02-23T02:43:02;102018.19;;;22.91;22.81
41513;BME280;27244;59.940;30.280;2023-02-23T02:45:43;102015.78;;;22.93;22.80
41513;BME280;27244;59.940;30.280;2023-02-23T02:48:18;102012.16;;;22.92;22.80
41513;BME280;27244;59.940;30.280;2023-02-23T02:50:49;102002.91;;;22.92;22.83
41513;BME280;27244;59.940;30.280;2023-02-23T02:53:25;102005.72;;;22.92;22.86
41513;BME280;27244;59.940;30.280;2023-02-23T02:55:56;102005.31;;;22.93;22.82
41513;BME280;27244;59.940;30.280;2023-02-23T02:58:25;102003.31;;;22.90;22.70
41513;BME280;27244;59.940;30.280;2023-02-23T03:00:53;102003.75;;;22.89;22.75
41513;BME280;27244;59.940;30.280;2023-02-23T03:03:39;102001.31;;;22.87;22.72
41513;BME280;27244;59.940;30.280;2023-02-23T03:06:28;102002.91;;;22.92;22.61
41513;BME280;27244;59.940;30.280;2023-02-23T03:09:24;102006.53;;;22.92;22.70
41513;BME280;27244;59.940;30.280;2023-02-23T03:12:17;102007.75;;;22.88;22.51
41513;BME280;27244;59.940;30.280;2023-02-23T03:15:17;102004.53;;;22.93;22.55
41513;BME280;27244;59.940;30.280;2023-02-23T03:18:14;102002.13;;;22.91;22.56
41513;BME280;27244;59.940;30.280;2023-02-23T03:21:06;102006.94;;;22.91;22.63
41513;BME280;27244;59.940;30.280;2023-02-23T03:24:01;101993.69;;;22.91;22.61
41513;BME280;27244;59.940;30.280;2023-02-23T03:26:54;101996.50;;;22.91;22.61
41513;BME280;27244;59.940;30.280;2023-02-23T03:29:46;101988.84;;;22.92;22.58
41513;BME280;27244;59.940;30.280;2023-02-23T03:32:36;101984.03;;;22.92;22.62
41513;BME280;27244;59.940;30.280;2023-02-23T03:35:26;101986.03;;;22.92;22.45
41513;BME280;27244;59.940;30.280;2023-02-23T03:38:17;101986.41;;;22.94;22.48
41513;BME280;27244;59.940;30.280;2023-02-23T03:41:03;101990.88;;;22.91;22.64
41513;BME280;27244;59.940;30.280;2023-02-23T03:43:55;101990.47;;;22.93;22.62
41513;BME280;27244;59.940;30.280;2023-02-23T03:46:42;101988.44;;;22.90;22.58
41513;BME280;27244;59.940;30.280;2023-02-23T03:49:33;101991.66;;;22.92;22.69
41513;BME280;27244;59.940;30.280;2023-02-23T03:52:23;101983.63;;;22.90;22.33
41513;BME280;27244;59.940;30.280;2023-02-23T03:55:11;101984.84;;;22.89;22.44
41513;BME280;27244;59.940;30.280;2023-02-23T03:57:58;101989.25;;;22.87;22.53
41513;BME280;27244;59.940;30.280;2023-02-23T04:00:47;101978.00;;;22.90;22.51
41513;BME280;27244;59.940;30.280;2023-02-23T04:03:34;101978.81;;;22.87;22.44
41513;BME280;27244;59.940;30.280;2023-02-23T04:06:23;101978.41;;;22.89;22.37
41513;BME280;27244;59.940;30.280;2023-02-23T04:09:09;101976.44;;;22.86;22.28
41513;BME280;27244;59.940;30.280;2023-02-23T04:11:57;101982.03;;;22.89;22.52
41513;BME280;27244;59.940;30.280;2023-02-23T04:14:53;101974.78;;;22.92;22.36
41513;BME280;27244;59.940;30.280;2023-02-23T04:17:23;101973.97;;;22.91;22.51
41513;BME280;27244;59.940;30.280;2023-02-23T04:19:56;101981.63;;;22.91;22.38
41513;BME280;27244;59.940;30.280;2023-02-23T04:22:23;101972.38;;;22.90;22.54
41513;BME280;27244;59.940;30.280;2023-02-23T04:24:51;101978.00;;;22.90;22.54
41513;BME280;27244;59.940;30.280;2023-02-23T04:27:18;101963.53;;;22.88;22.59
41513;BME280;27244;59.940;30.280;2023-02-23T04:29:45;101969.56;;;22.90;22.67
41513;BME280;27244;59.940;30.280;2023-02-23T04:32:14;101965.94;;;22.90;22.51
41513;BME280;27244;59.940;30.280;2023-02-23T04:34:43;101956.72;;;22.86;22.59
41513;BME280;27244;59.940;30.280;2023-02-23T04:37:10;101968.38;;;22.88;22.45
41513;BME280;27244;59.940;30.280;2023-02-23T04:39:38;101968.38;;;22.88;22.52
41513;BME280;27244;59.940;30.280;2023-02-23T04:42:05;101966.75;;;22.87;22.62
41513;BME280;27244;59.940;30.280;2023-02-23T04:44:32;101972.00;;;22.88;22.56
41513;BME280;27244;59.940;30.280;2023-02-23T04:46:59;101966.75;;;22.87;22.53
41513;BME280;27244;59.940;30.280;2023-02-23T04:49:26;101906.66;;;22.49;22.51
41513;BME280;27244;59.940;30.280;2023-02-23T04:51:54;101960.78;;;22.81;22.65
41513;BME280;27244;59.940;30.280;2023-02-23T04:54:21;101971.19;;;22.88;22.68
41513;BME280;27244;59.940;30.280;2023-02-23T04:56:48;101963.59;;;22.81;22.63
41513;BME280;27244;59.940;30.280;2023-02-23T04:59:15;101970.38;;;22.87;22.82
41513;BME280;27244;59.940;30.280;2023-02-23T05:01:43;101964.75;;;22.87;22.77
41513;BME280;27244;59.940;30.280;2023-02-23T05:04:10;101969.97;;;22.89;22.69
41513;BME280;27244;59.940;30.280;2023-02-23T05:06:37;101965.56;;;22.88;22.65
41513;BME280;27244;59.940;30.280;2023-02-23T05:09:05;101953.91;;;22.89;22.69
41513;BME280;27244;59.940;30.280;2023-02-23T05:11:32;101959.53;;;22.89;22.64
41513;BME280;27244;59.940;30.280;2023-02-23T05:13:59;101949.88;;;22.87;22.78
41513;BME280;27244;59.940;30.280;2023-02-23T05:16:26;101953.91;;;22.89;22.80
41513;BME280;27244;59.940;30.280;2023-02-23T05:18:54;101949.47;;;22.88;22.68
41513;BME280;27244;59.940;30.280;2023-02-23T05:21:21;101945.06;;;22.87;22.77
41513;BME280;27244;59.940;30.280;2023-02-23T05:23:48;101944.25;;;22.87;22.54
41513;BME280;27244;59.940;30.280;2023-02-23T05:26:16;101941.84;;;22.89;22.70
41513;BME280;27244;59.940;30.280;2023-02-23T05:28:44;101937.81;;;22.86;22.53
41513;BME280;27244;59.940;30.280;2023-02-23T05:31:11;101930.97;;;22.87;22.77
41513;BME280;27244;59.940;30.280;2023-02-23T05:33:38;101925.78;;;22.86;22.69
41513;BME280;27244;59.940;30.280;2023-02-23T05:36:08;101919.72;;;22.87;22.65
41513;BME280;27244;59.940;30.280;2023-02-23T05:38:36;101915.72;;;22.88;22.59
41513;BME280;27244;59.940;30.280;2023-02-23T05:41:04;101912.09;;;22.88;22.57
41513;BME280;27244;59.940;30.280;2023-02-23T05:43:33;101912.91;;;22.88;23.43
41513;BME280;27244;59.940;30.280;2023-02-23T05:46:05;101907.28;;;22.85;23.13
41513;BME280;27244;59.940;30.280;2023-02-23T05:48:32;101903.31;;;22.82;23.08
41513;BME280;27244;59.940;30.280;2023-02-23T05:51:01;101894.47;;;22.77;23.18
41513;BME280;27244;59.940;30.280;2023-02-23T05:53:28;101893.28;;;22.74;23.17
41513;BME280;27244;59.940;30.280;2023-02-23T05:55:55;101884.88;;;22.71;23.39
41513;BME280;27244;59.940;30.280;2023-02-23T05:58:22;101872.81;;;22.67;23.30
41513;BME280;27244;59.940;30.280;2023-02-23T06:00:51;101871.63;;;22.64;23.48
41513;BME280;27244;59.940;30.280;2023-02-23T06:03:18;101864.81;;;22.58;23.69
41513;BME280;27244;59.940;30.280;2023-02-23T06:05:48;101870.41;;;22.62;23.93
41513;BME280;27244;59.940;30.280;2023-02-23T06:08:16;101859.63;;;22.56;23.94
41513;BME280;27244;59.940;30.280;2023-02-23T06:10:43;101861.63;;;22.56;24.35
41513;BME280;27244;59.940;30.280;2023-02-23T06:13:10;101864.47;;;22.49;26.98
41513;BME280;27244;59.940;30.280;2023-02-23T06:15:38;101862.84;;;22.51;29.98
41513;BME280;27244;59.940;30.280;2023-02-23T06:18:06;101860.84;;;22.52;29.18
41513;BME280;27244;59.940;30.280;2023-02-23T06:20:35;101868.88;;;22.50;28.08
41513;BME280;27244;59.940;30.280;2023-02-23T06:23:03;101866.06;;;22.50;27.40
41513;BME280;27244;59.940;30.280;2023-02-23T06:25:31;101869.28;;;22.48;26.74
41513;BME280;27244;59.940;30.280;2023-02-23T06:27:58;101877.72;;;22.48;28.88
41513;BME280;27244;59.940;30.280;2023-02-23T06:30:25;101862.84;;;22.48;26.43
41513;BME280;27244;59.940;30.280;2023-02-23T06:32:52;101860.03;;;22.51;26.14
41513;BME280;27244;59.940;30.280;2023-02-23T06:35:24;101840.78;;;22.50;26.14
41513;BME280;27244;59.940;30.280;2023-02-23T06:37:59;101834.75;;;22.44;26.07
41513;BME280;27244;59.940;30.280;2023-02-23T06:40:26;101858.38;;;22.57;26.19
41513;BME280;27244;59.940;30.280;2023-02-23T06:42:55;101857.19;;;22.58;26.30
41513;BME280;27244;59.940;30.280;2023-02-23T06:45:22;101844.34;;;22.54;26.22
41513;BME280;27244;59.940;30.280;2023-02-23T06:47:49;101841.09;;;22.59;26.51
41513;BME280;27244;59.940;30.280;2023-02-23T06:50:18;101847.91;;;22.62;26.59
41513;BME280;27244;59.940;30.280;2023-02-23T06:52:47;101837.47;;;22.62;27.34
41513;BME280;27244;59.940;30.280;2023-02-23T06:55:14;101839.81;;;22.81;26.72
41513;BME280;27244;59.940;30.280;2023-02-23T06:57:41;101839.34;;;22.86;26.41
41513;BME280;27244;59.940;30.280;2023-02-23T07:00:09;101841.34;;;22.93;26.36
41513;BME280;27244;59.940;30.280;2023-02-23T07:02:37;101836.94;;;22.88;26.33
41513;BME280;27244;59.940;30.280;2023-02-23T07:05:04;101828.50;;;22.88;26.20
41513;BME280;27244;59.940;30.280;2023-02-23T07:07:31;101837.22;;;23.04;26.06
41513;BME280;27244;59.940;30.280;2023-02-23T07:09:59;101836.00;;;23.05;26.06
41513;BME280;27244;59.940;30.280;2023-02-23T07:12:29;101831.91;;;23.14;25.96
41513;BME280;27244;59.940;30.280;2023-02-23T07:14:56;101831.91;;;23.14;26.21
41513;BME280;27244;59.940;30.280;2023-02-23T07:17:23;101825.44;;;23.20;26.24
41513;BME280;27244;59.940;30.280;2023-02-23T07:19:49;101827.84;;;23.22;26.21
41513;BME280;27244;59.940;30.280;2023-02-23T07:22:16;101825.78;;;23.26;26.25
41513;BME280;27244;59.940;30.280;2023-02-23T07:24:43;101824.97;;;23.29;26.31
41513;BME280;27244;59.940;30.280;2023-02-23T07:27:12;101819.31;;;23.29;26.46
41513;BME280;27244;59.940;30.280;2023-02-23T07:29:39;101820.50;;;23.31;26.45
41513;BME280;27244;59.940;30.280;2023-02-23T07:32:06;101815.69;;;23.32;26.59
41513;BME280;27244;59.940;30.280;2023-02-23T07:34:33;101811.22;;;23.34;26.58
41513;BME280;27244;59.940;30.280;2023-02-23T07:37:00;101811.66;;;23.33;26.55
41513;BME280;27244;59.940;30.280;2023-02-23T07:39:27;101803.53;;;23.38;26.67
41513;BME280;27244;59.940;30.280;2023-02-23T07:41:54;101799.16;;;23.34;26.68
41513;BME280;27244;59.940;30.280;2023-02-23T07:44:23;101801.91;;;23.41;26.65
41513;BME280;27244;59.940;30.280;2023-02-23T07:46:50;101795.50;;;23.40;26.70
41513;BME280;27244;59.940;30.280;2023-02-23T07:49:17;101795.84;;;23.46;26.80
41513;BME280;27244;59.940;30.280;2023-02-23T07:51:45;101793.84;;;23.46;26.82
41513;BME280;27244;59.940;30.280;2023-02-23T07:54:12;101785.44;;;23.43;26.90
41513;BME280;27244;59.940;30.280;2023-02-23T07:56:39;101777.78;;;23.40;27.02
41513;BME280;27244;59.940;30.280;2023-02-23T07:59:06;101782.63;;;23.43;26.99
41513;BME280;27244;59.940;30.280;2023-02-23T08:01:34;101777.34;;;23.45;27.05
41513;BME280;27244;59.940;30.280;2023-02-23T08:04:01;101772.97;;;23.44;27.15
41513;BME280;27244;59.940;30.280;2023-02-23T08:06:29;101762.09;;;23.42;27.20
41513;BME280;27244;59.940;30.280;2023-02-23T08:08:57;101768.50;;;23.46;27.02
41513;BME280;27244;59.940;30.280;2023-02-23T08:11:24;101772.50;;;23.49;27.02
41513;BME280;27244;59.940;30.280;2023-02-23T08:13:53;101763.63;;;23.50;27.03
41513;BME280;27244;59.940;30.280;2023-02-23T08:16:21;101764.44;;;23.51;26.99
41513;BME280;27244;59.940;30.280;2023-02-23T08:18:49;101765.22;;;23.51;27.17
41513;BME280;27244;59.940;30.280;2023-02-23T08:21:16;101760.84;;;23.47;27.15
41513;BME280;27244;59.940;30.280;2023-02-23T08:23:43;101761.22;;;23.49;27.19
41513;BME280;27244;59.940;30.280;2023-02-23T08:26:10;101752.00;;;23.45;27.13
41513;BME280;27244;59.940;30.280;2023-02-23T08:28:37;101764.88;;;23.46;27.12
41513;BME280;27244;59.940;30.280;2023-02-23T08:31:08;101758.84;;;23.47;27.34
41513;BME280;27244;59.940;30.280;2023-02-23T08:33:35;101760.09;;;23.39;27.67
41513;BME280;27244;59.940;30.280;2023-02-23T08:36:05;101759.69;;;23.37;27.54
41513;BME280;27244;59.940;30.280;2023-02-23T08:38:33;101761.34;;;23.35;27.58
41513;BME280;27244;59.940;30.280;2023-02-23T08:41:01;101750.13;;;23.31;27.64
41513;BME280;27244;59.940;30.280;2023-02-23T08:43:28;101754.16;;;23.30;27.67
41513;BME280;27244;59.940;30.280;2023-02-23T08:45:56;101745.31;;;23.28;27.64
41513;BME280;27244;59.940;30.280;2023-02-23T08:48:24;101741.72;;;23.28;27.69
41513;BME280;27244;59.940;30.280;2023-02-23T08:50:57;101730.03;;;23.29;27.95
41513;BME280;27244;59.940;30.280;2023-02-23T08:53:26;101736.41;;;23.33;27.81
41513;BME280;27244;59.940;30.280;2023-02-23T08:55:57;101728.47;;;23.25;27.92
41513;BME280;27244;59.940;30.280;2023-02-23T08:58:25;101728.44;;;23.28;27.91
41513;BME280;27244;59.940;30.280;2023-02-23T09:00:52;101735.63;;;23.33;27.89
41513;BME280;27244;59.940;30.280;2023-02-23T09:03:19;101735.25;;;23.31;28.01
41513;BME280;27244;59.940;30.280;2023-02-23T09:05:47;101726.78;;;23.31;27.97
41513;BME280;27244;59.940;30.280;2023-02-23T09:08:15;101730.78;;;23.33;27.99
41513;BME280;27244;59.940;30.280;2023-02-23T09:10:44;101726.38;;;23.32;28.08
41513;BME280;27244;59.940;30.280;2023-02-23T09:13:11;101722.34;;;23.33;28.03
41513;BME280;27244;59.940;30.280;2023-02-23T09:15:39;101702.28;;;23.28;28.01
41513;BME280;27244;59.940;30.280;2023-02-23T09:18:06;101713.88;;;23.33;28.08
41513;BME280;27244;59.940;30.280;2023-02-23T09:20:34;101711.88;;;23.34;28.03
41513;BME280;27244;59.940;30.280;2023-02-23T09:23:01;101708.25;;;23.33;28.10
41513;BME280;27244;59.940;30.280;2023-02-23T09:25:28;101700.66;;;23.30;28.08
41513;BME280;27244;59.940;30.280;2023-02-23T09:27:57;101700.56;;;23.37;28.18
41513;BME280;27244;59.940;30.280;2023-02-23T09:30:25;101702.59;;;23.37;28.18
41513;BME280;27244;59.940;30.280;2023-02-23T09:32:53;101692.56;;;23.36;28.17
41513;BME280;27244;59.940;30.280;2023-02-23T09:35:23;101694.53;;;23.39;27.98
41513;BME280;27244;59.940;30.280;2023-02-23T09:37:51;101685.69;;;23.40;28.24
41513;BME280;27244;59.940;30.280;2023-02-23T09:40:22;101679.63;;;23.42;28.22
41513;BME280;27244;59.940;30.280;2023-02-23T09:42:57;101670.38;;;23.41;28.30
41513;BME280;27244;59.940;30.280;2023-02-23T09:45:32;101666.31;;;23.46;28.33
41513;BME280;27244;59.940;30.280;2023-02-23T09:48:12;101661.09;;;23.41;28.31
41513;BME280;27244;59.940;30.280;2023-02-23T09:50:43;101666.38;;;23.39;28.37
41513;BME280;27244;59.940;30.280;2023-02-23T09:53:21;101664.75;;;23.41;28.37
41513;BME280;27244;59.940;30.280;2023-02-23T09:55:50;101662.41;;;23.36;28.38
41513;BME280;27244;59.940;30.280;2023-02-23T09:58:23;101659.53;;;23.40;28.31
41513;BME280;27244;59.940;30.280;2023-02-23T10:01:01;101670.38;;;23.41;28.30
41513;BME280;27244;59.940;30.280;2023-02-23T10:03:32;101657.94;;;23.39;28.33
41513;BME280;27244;59.940;30.280;2023-02-23T10:06:03;101659.13;;;23.38;28.65
41513;BME280;27244;59.940;30.280;2023-02-23T10:11:21;101645.47;;;23.40;28.22
41513;BME280;27244;59.940;30.280;2023-02-23T10:13:59;101642.25;;;23.38;28.43
41513;BME280;27244;59.940;30.280;2023-02-23T10:16:34;101634.25;;;23.36;28.21
41513;BME280;27244;59.940;30.280;2023-02-23T10:19:12;101630.97;;;23.38;28.14
41513;BME280;27244;59.940;30.280;2023-02-23T10:21:47;101631.47;;;23.33;28.33
41513;BME280;27244;59.940;30.280;2023-02-23T10:24:20;101614.63;;;23.29;28.14
41513;BME280;27244;59.940;30.280;2023-02-23T10:26:52;101597.78;;;23.26;28.47
41513;BME280;27244;59.940;30.280;2023-02-23T10:29:26;101618.16;;;23.33;28.16
41513;BME280;27244;59.940;30.280;2023-02-23T10:32:02;101611.75;;;23.33;28.35
41513;BME280;27244;59.940;30.280;2023-02-23T10:34:32;101599.31;;;23.30;28.47
41513;BME280;27244;59.940;30.280;2023-02-23T10:37:08;101586.41;;;23.33;28.52
41513;BME280;27244;59.940;30.280;2023-02-23T10:39:43;101591.28;;;23.29;28.49
41513;BME280;27244;59.940;30.280;2023-02-23T10:42:13;101584.41;;;23.30;28.59
41513;BME280;27244;59.940;30.280;2023-02-23T10:44:46;101575.25;;;23.26;28.73
41513;BME280;27244;59.940;30.280;2023-02-23T10:47:35;101573.16;;;23.30;28.84
41513;BME280;27244;59.940;30.280;2023-02-23T10:50:12;101554.94;;;23.11;30.45
41513;BME280;27244;59.940;30.280;2023-02-23T10:52:45;101564.41;;;23.24;29.52
41513;BME280;27244;59.940;30.280;2023-02-23T10:55:23;101556.38;;;23.23;29.15
41513;BME280;27244;59.940;30.280;2023-02-23T10:58:05;101562.75;;;23.27;29.16
41513;BME280;27244;59.940;30.280;2023-02-23T11:00:37;101550.00;;;23.19;29.41
41513;BME280;27244;59.940;30.280;2023-02-23T11:03:16;101549.47;;;23.27;29.38
41513;BME280;27244;59.940;30.280;2023-02-23T11:05:46;101556.00;;;23.21;29.94
41513;BME280;27244;59.940;30.280;2023-02-23T11:08:33;101539.47;;;23.23;29.64
41513;BME280;27244;59.940;30.280;2023-02-23T11:11:17;101549.91;;;23.26;29.73
41513;BME280;27244;59.940;30.280;2023-02-23T11:13:47;101531.22;;;23.09;30.35
41513;BME280;27244;59.940;30.280;2023-02-23T11:16:23;101545.09;;;23.23;30.10
41513;BME280;27244;59.940;30.280;2023-02-23T11:18:53;101546.75;;;23.20;30.46
41513;BME280;27244;59.940;30.280;2023-02-23T11:21:25;101537.91;;;23.22;30.58
41513;BME280;27244;59.940;30.280;2023-02-23T11:24:02;101534.34;;;23.18;30.79
41513;BME280;27244;59.940;30.280;2023-02-23T11:26:36;101528.34;;;23.12;31.17
41513;BME280;27244;59.940;30.280;2023-02-23T11:29:37;101537.00;;;23.28;31.46
41513;BME280;27244;59.940;30.280;2023-02-23T11:32:20;101503.16;;;23.01;33.80
41513;BME280;27244;59.940;30.280;2023-02-23T11:35:16;101527.50;;;23.19;33.79
41513;BME280;27244;59.940;30.280;2023-02-23T11:38:14;101515.47;;;23.15;32.63
41513;BME280;27244;59.940;30.280;2023-02-23T11:41:03;101492.00;;;22.94;32.21
41513;BME280;27244;59.940;30.280;2023-02-23T11:43:40;101449.44;;;22.58;31.44
41513;BME280;27244;59.940;30.280;2023-02-23T11:46:28;101472.19;;;22.75;31.04
41513;BME280;27244;59.940;30.280;2023-02-23T11:49:31;101434.19;;;22.56;29.94
41513;BME280;27244;59.940;30.280;2023-02-23T11:52:15;101455.75;;;22.70;29.37
41513;BME280;27244;59.940;30.280;2023-02-23T11:54:53;101461.34;;;22.73;28.29
41513;BME280;27244;59.940;30.280;2023-02-23T11:57:41;101466.41;;;22.85;27.66
41513;BME280;27244;59.940;30.280;2023-02-23T12:00:22;101430.44;;;22.70;27.44
41513;BME280;27244;59.940;30.280;2023-02-23T12:03:05;101439.69;;;22.70;27.39
41513;BME280;27244;59.940;30.280;2023-02-23T12:05:39;101435.16;;;22.76;27.49
41513;BME280;27244;59.940;30.280;2023-02-23T12:08:35;101450.56;;;22.98;27.70
41513;BME280;27244;59.940;30.280;2023-02-23T12:11:36;101406.69;;;22.74;27.76
41513;BME280;27244;59.940;30.280;2023-02-23T12:14:28;101418.91;;;22.91;27.89
41513;BME280;27244;59.940;30.280;2023-02-23T12:17:11;101439.69;;;23.00;27.89
41513;BME280;27244;59.940;30.280;2023-02-23T12:19:45;101422.47;;;22.95;28.08
41513;BME280;27244;59.940;30.280;2023-02-23T12:22:17;101437.25;;;23.02;28.08
41513;BME280;27244;59.940;30.280;2023-02-23T12:24:49;101417.59;;;22.99;28.17
41513;BME280;27244;59.940;30.280;2023-02-23T12:27:21;101425.56;;;23.04;28.32
41513;BME280;27244;59.940;30.280;2023-02-23T12:30:00;101420.31;;;23.06;28.29
41513;BME280;27244;59.940;30.280;2023-02-23T12:32:42;101413.88;;;23.05;28.21
41513;BME280;27244;59.940;30.280;2023-02-23T12:35:15;101417.50;;;23.06;28.27
41513;BME280;27244;59.940;30.280;2023-02-23T12:37:47;101406.22;;;23.06;28.44
41513;BME280;27244;59.940;30.280;2023-02-23T12:40:17;101401.03;;;23.04;28.41
41513;BME280;27244;59.940;30.280;2023-02-23T12:42:53;101381.81;;;22.99;28.34
41513;BME280;27244;59.940;30.280;2023-02-23T12:45:27;101383.31;;;23.08;28.48
41513;BME280;27244;59.940;30.280;2023-02-23T12:48:02;101374.00;;;23.11;28.48
41513;BME280;27244;59.940;30.280;2023-02-23T12:50:34;101376.44;;;23.09;28.54
41513;BME280;27244;59.940;30.280;2023-02-23T12:53:11;101369.19;;;23.11;28.47
41513;BME280;27244;59.940;30.280;2023-02-23T12:55:50;101354.66;;;23.13;28.40
41513;BME280;27244;59.940;30.280;2023-02-23T12:58:28;101349.03;;;23.13;28.58
41513;BME280;27244;59.940;30.280;2023-02-23T13:01:03;101347.81;;;23.14;28.42
41513;BME280;27244;59.940;30.280;2023-02-23T13:03:55;101347.34;;;23.19;28.43
41513;BME280;27244;59.940;30.280;2023-02-23T13:06:32;101339.75;;;23.16;28.57
41513;BME280;27244;59.940;30.280;2023-02-23T13:09:19;101334.06;;;23.19;28.90
41513;BME280;27244;59.940;30.280;2023-02-23T13:12:11;101328.44;;;23.19;28.43
41513;BME280;27244;59.940;30.280;2023-02-23T13:14:44;101328.13;;;23.14;28.74
41513;BME280;27244;59.940;30.280;2023-02-23T13:17:26;101325.63;;;23.19;28.53
41513;BME280;27244;59.940;30.280;2023-02-23T13:20:03;101308.38;;;23.17;28.63
41513;BME280;27244;59.940;30.280;2023-02-23T13:23:09;101303.91;;;23.20;28.64
41513;BME280;27244;59.940;30.280;2023-02-23T13:25:46;101289.81;;;23.20;28.56